Time;durP1;ratioP1;P1;durP2;ratioP2;P2;SDS_P1;SDS_P2;PMS_P1;PMS_P2;Temp;Humidity;BMP_temperature;BMP_pressure;BME280_temperature;BME280_humidity;BME280_pressure;Samples;Min_cycle;Max_cycle;Signal;HPM_P1;HPM_P2
2023/06/25 00:08:14;;;;;;;10.23;8.93;;;;;;;22.11;68.38;96928.53;5019945;27;3747786;-76
2023/06/25 00:10:50;;;;;;;10.80;8.90;;;;;;;22.27;67.39;96912.91;5125146;27;20197;-82
2023/06/25 00:13:18;;;;;;;9.57;8.33;;;;;;;22.64;66.38;96918.19;5120904;28;20439;-81
2023/06/25 00:15:45;;;;;;;10.50;8.13;;;;;;;22.82;64.67;96912.94;5123055;28;20219;-82
2023/06/25 00:18:15;;;;;;;10.47;8.60;;;;;;;23.00;64.42;96921.75;5123658;27;20213;-74
2023/06/25 00:20:42;;;;;;;10.40;8.90;;;;;;;22.93;64.81;96915.38;5125112;27;20205;-79
2023/06/25 00:23:10;;;;;;;10.10;7.73;;;;;;;22.99;64.42;96926.19;5123123;28;20187;-75
2023/06/25 00:25:37;;;;;;;9.67;7.70;;;;;;;22.96;64.27;96920.34;5122979;28;20688;-76
2023/06/25 00:28:08;;;;;;;8.90;7.90;;;;;;;22.87;64.82;96911.53;5123421;27;20733;-79
2023/06/25 00:30:37;;;;;;;9.00;8.10;;;;;;;23.04;64.79;96896.69;5122743;27;20273;-76
2023/06/25 00:33:06;;;;;;;8.93;7.97;;;;;;;23.15;65.05;96918.41;5122336;28;20215;-76
2023/06/25 00:35:43;;;;;;;10.43;8.10;;;;;;;23.15;64.29;96914.94;5120880;28;20191;-73
2023/06/25 00:38:11;;;;;;;10.77;7.67;;;;;;;23.25;63.95;96913.03;5122260;28;20743;-79
2023/06/25 00:40:39;;;;;;;9.77;8.47;;;;;;;23.18;64.26;96910.19;5103791;28;20202;-75
2023/06/25 00:43:07;;;;;;;8.70;7.77;;;;;;;23.23;64.19;96909.72;5105179;28;20681;-81
2023/06/25 00:45:34;;;;;;;8.90;8.00;;;;;;;23.03;64.61;96905.56;5122476;28;20289;-79
2023/06/25 00:48:02;;;;;;;8.73;7.23;;;;;;;23.05;64.97;96911.53;5123381;28;20252;-79
2023/06/25 00:50:29;;;;;;;9.30;8.33;;;;;;;23.02;64.69;96907.38;5123163;28;20205;-80
2023/06/25 00:52:57;;;;;;;9.93;7.93;;;;;;;22.71;65.85;96900.75;5104753;28;20272;-81
2023/06/25 00:55:25;;;;;;;10.37;7.63;;;;;;;22.68;65.62;96901.06;5124819;27;20278;-80
2023/06/25 00:57:55;;;;;;;9.60;8.30;;;;;;;22.22;66.80;96909.88;5122083;28;20240;-80
2023/06/25 01:00:24;;;;;;;11.40;8.43;;;;;;;21.90;68.03;96893.59;5123224;28;20574;-80
2023/06/25 01:03:03;;;;;;;11.57;9.00;;;;;;;21.65;69.37;96915.28;5123388;28;20192;-81
2023/06/25 01:06:00;;;;;;;10.50;8.90;;;;;;;21.25;70.68;96904.06;5122930;27;20285;-80
2023/06/25 01:08:39;;;;;;;11.77;8.53;;;;;;;21.24;70.89;96899.78;5111054;27;20232;-80
2023/06/25 01:11:10;;;;;;;12.07;8.63;;;;;;;21.58;69.88;96906.25;5108729;28;20202;-81
2023/06/25 01:13:38;;;;;;;10.80;9.27;;;;;;;21.73;68.88;96908.31;5091250;28;20192;-76
2023/06/25 01:16:06;;;;;;;11.83;8.93;;;;;;;21.66;69.05;96898.47;5109022;28;20217;-80
2023/06/25 01:18:33;;;;;;;10.70;8.70;;;;;;;21.96;68.07;96887.75;5107691;28;20185;-79
2023/06/25 01:21:03;;;;;;;10.40;7.97;;;;;;;22.18;67.51;96907.66;5107155;28;20215;-80
2023/06/25 01:23:35;;;;;;;10.57;8.47;;;;;;;22.10;67.50;96911.03;5106385;28;20234;-81
2023/06/25 01:26:03;;;;;;;9.40;8.40;;;;;;;22.03;67.18;96914.41;5075085;28;20195;-78
2023/06/25 01:28:30;;;;;;;11.10;8.50;;;;;;;21.95;67.59;96906.38;5108319;28;20250;-82
2023/06/25 01:30:58;;;;;;;12.73;7.73;;;;;;;21.65;68.84;96895.03;5091453;28;20258;-81
2023/06/25 01:33:26;;;;;;;10.00;8.33;;;;;;;21.79;68.58;96904.28;5110545;28;20189;-81
2023/06/25 01:35:53;;;;;;;9.67;8.27;;;;;;;21.62;69.71;96907.63;5108558;28;20691;-75
2023/06/25 01:38:21;;;;;;;11.60;9.53;;;;;;;21.38;71.20;96897.53;5107700;28;20694;-76
2023/06/25 01:40:50;;;;;;;11.40;9.10;;;;;;;21.00;73.03;96893.06;5105495;28;20257;-73
2023/06/25 01:43:17;;;;;;;10.47;9.13;;;;;;;20.92;73.71;96906.09;5107468;28;20262;-77
2023/06/25 01:45:45;;;;;;;12.33;9.33;;;;;;;20.73;74.17;96885.00;5109704;27;20191;-75
2023/06/25 01:48:13;;;;;;;11.37;9.80;;;;;;;20.67;75.07;96901.34;5108010;28;20200;-74
2023/06/25 01:50:41;;;;;;;12.33;9.43;;;;;;;20.70;74.66;96898.44;5108679;28;20195;-74
2023/06/25 01:53:20;;;;;;;14.07;10.13;;;;;;;20.63;75.25;96897.31;5108592;28;20214;-75
2023/06/25 01:55:47;;;;;;;12.10;9.60;;;;;;;20.52;76.01;96886.06;5092026;28;20275;-80
2023/06/25 01:58:16;;;;;;;11.53;10.20;;;;;;;20.38;76.75;96884.63;5107203;28;20211;-73
2023/06/25 02:00:43;;;;;;;13.63;10.67;;;;;;;20.32;76.89;96882.53;5108704;28;20180;-74
2023/06/25 02:03:10;;;;;;;13.37;10.77;;;;;;;20.31;77.41;96880.88;5108206;28;20200;-81
2023/06/25 02:05:38;;;;;;;15.83;11.70;;;;;;;20.10;78.07;96874.81;5108708;28;20265;-76
2023/06/25 02:08:07;;;;;;;14.83;10.53;;;;;;;20.12;78.16;96857.94;5109519;28;20227;-73
2023/06/25 02:10:34;;;;;;;12.57;10.73;;;;;;;20.15;78.40;96880.53;5106798;28;20222;-76
2023/06/25 02:13:03;;;;;;;12.07;10.13;;;;;;;19.97;79.55;96879.50;5109121;28;20600;-76
2023/06/25 02:15:45;;;;;;;12.57;10.07;;;;;;;20.22;79.60;96876.41;5108227;27;20278;-75
2023/06/25 02:18:15;;;;;;;13.83;10.03;;;;;;;20.31;78.42;96880.88;5106826;28;20714;-73
2023/06/25 02:21:03;;;;;;;14.17;10.57;;;;;;;20.40;77.92;96882.72;5092919;28;20714;-74
2023/06/25 02:23:30;;;;;;;15.43;10.20;;;;;;;20.79;76.70;96892.34;5087877;28;20661;-75
2023/06/25 02:25:58;;;;;;;13.97;11.03;;;;;;;20.96;75.47;96896.94;5107468;28;20244;-81
2023/06/25 02:28:25;;;;;;;12.10;10.30;;;;;;;21.06;74.78;96889.09;5087763;28;20196;-77
2023/06/25 02:30:52;;;;;;;12.40;9.70;;;;;;;21.15;74.24;96890.06;5089330;28;20200;-79
2023/06/25 02:33:22;;;;;;;13.43;10.70;;;;;;;21.18;73.42;96874.00;5088921;28;20200;-80
2023/06/25 02:35:50;;;;;;;15.43;11.93;;;;;;;21.18;73.40;96880.09;5104693;28;20187;-78
2023/06/25 02:38:17;;;;;;;12.03;10.80;;;;;;;21.26;73.03;96880.22;5107577;28;20293;-80
2023/06/25 02:40:44;;;;;;;13.00;10.83;;;;;;;21.32;72.83;96882.31;5104316;28;20193;-73
2023/06/25 02:43:11;;;;;;;11.53;9.70;;;;;;;21.28;72.88;96872.19;5106743;28;20183;-81
2023/06/25 02:45:47;;;;;;;16.73;11.87;;;;;;;21.26;73.02;96882.88;5089290;28;20199;-80
2023/06/25 02:48:14;;;;;;;15.00;10.70;;;;;;;21.56;71.93;96879.22;5108737;28;20188;-80
2023/06/25 02:50:44;;;;;;;12.27;10.27;;;;;;;21.63;71.41;96890.84;5107985;28;20193;-78
2023/06/25 02:53:12;;;;;;;12.73;10.23;;;;;;;21.32;72.12;96886.72;5105040;28;20180;-77
2023/06/25 02:55:39;;;;;;;13.50;10.83;;;;;;;20.97;73.12;96893.38;5107253;28;20257;-72
2023/06/25 02:58:06;;;;;;;13.07;10.03;;;;;;;20.60;73.80;96902.03;5104533;28;20305;-75
2023/06/25 03:00:35;;;;;;;12.20;10.13;;;;;;;20.53;74.50;96909.59;5090543;28;20191;-79
2023/06/25 03:03:03;;;;;;;13.17;10.83;;;;;;;20.45;74.76;96898.94;5106207;28;20188;-75
2023/06/25 03:05:34;;;;;;;13.27;10.87;;;;;;;20.41;74.24;96905.44;5106353;28;20230;-76
2023/06/25 03:08:03;;;;;;;15.00;11.00;;;;;;;20.43;74.49;96907.91;5107346;28;20664;-79
2023/06/25 03:10:33;;;;;;;12.87;9.83;;;;;;;20.59;73.46;96908.22;5106224;28;20193;-77
2023/06/25 03:13:00;;;;;;;12.33;9.70;;;;;;;20.36;74.24;96912.88;5107154;28;20188;-79
2023/06/25 03:15:27;;;;;;;14.27;10.90;;;;;;;19.91;75.95;96906.28;5106648;28;20211;-80
2023/06/25 03:17:54;;;;;;;15.10;10.57;;;;;;;20.02;75.85;96908.81;5108373;28;20306;-79
2023/06/25 03:20:22;;;;;;;12.30;10.07;;;;;;;20.25;75.12;96910.34;5105612;28;20253;-78
2023/06/25 03:22:49;;;;;;;14.27;10.40;;;;;;;20.47;73.82;96915.41;5108255;28;20187;-79
2023/06/25 03:25:18;;;;;;;11.77;10.10;;;;;;;20.76;73.65;96913.69;5106818;28;20188;-76
2023/06/25 03:27:51;;;;;;;11.93;10.00;;;;;;;20.86;73.58;96911.91;5105432;28;20721;-79
2023/06/25 03:30:24;;;;;;;12.97;9.67;;;;;;;21.17;72.41;96909.19;5107126;28;20188;-78
2023/06/25 03:32:51;;;;;;;14.70;9.63;;;;;;;21.46;70.91;96900.31;5088529;28;20249;-78
2023/06/25 03:35:19;;;;;;;19.27;9.77;;;;;;;21.06;72.41;96889.91;5106782;28;20195;-74
2023/06/25 03:37:47;;;;;;;12.17;9.40;;;;;;;21.47;71.05;96903.78;5104643;28;20227;-76
2023/06/25 03:40:14;;;;;;;13.57;9.93;;;;;;;21.44;71.09;96890.88;5088140;28;20211;-77
2023/06/25 03:42:44;;;;;;;14.73;10.07;;;;;;;21.41;71.73;96891.19;5088805;28;20197;-78
2023/06/25 03:45:15;;;;;;;14.30;10.47;;;;;;;21.59;71.20;96895.59;5086765;28;20218;-80
2023/06/25 03:47:43;;;;;;;13.07;11.17;;;;;;;21.69;71.35;96901.69;5106814;28;20186;-76
2023/06/25 03:50:11;;;;;;;13.33;10.53;;;;;;;22.43;69.74;96902.56;5103137;28;20284;-77
2023/06/25 03:52:38;;;;;;;13.73;9.07;;;;;;;22.71;68.85;96905.25;5105356;28;20290;-77
2023/06/25 03:55:06;;;;;;;14.57;9.73;;;;;;;23.14;67.31;96903.53;5104980;28;20211;-75
2023/06/25 03:57:35;;;;;;;13.63;10.57;;;;;;;23.19;67.43;96892.50;5107085;28;20236;-76
2023/06/25 04:00:03;;;;;;;11.90;10.13;;;;;;;23.51;65.36;96914.00;5105846;28;20196;-75
2023/06/25 04:02:39;;;;;;;12.87;10.50;;;;;;;22.73;68.55;96912.00;5085990;28;20438;-75
2023/06/25 04:05:09;;;;;;;16.73;10.23;;;;;;;22.88;67.35;96899.13;5068878;28;20207;-77
2023/06/25 04:07:36;;;;;;;17.07;11.90;;;;;;;22.47;68.71;96863.50;5082922;28;20323;-78
2023/06/25 04:10:05;;;;;;;15.80;11.13;;;;;;;22.45;68.80;96895.34;5084517;28;20224;-74
2023/06/25 04:12:32;;;;;;;18.97;13.97;;;;;;;22.29;68.91;96907.50;5084851;28;20584;-77
2023/06/25 04:15:01;;;;;;;15.57;10.97;;;;;;;22.04;70.26;96905.50;5068707;28;20191;-75
2023/06/25 04:17:30;;;;;;;14.93;10.97;;;;;;;22.50;68.04;96903.63;5085427;28;20606;-74
2023/06/25 04:19:57;;;;;;;14.40;10.77;;;;;;;22.39;68.83;96919.66;5084583;28;20211;-73
2023/06/25 04:22:25;;;;;;;14.87;10.37;;;;;;;22.31;69.04;96914.28;5085451;28;20189;-73
2023/06/25 04:24:52;;;;;;;13.17;11.07;;;;;;;22.58;67.84;96914.34;5066011;28;20693;-76
2023/06/25 04:27:21;;;;;;;11.57;7.93;;;;;;;21.96;68.35;96929.97;5084177;28;20250;-78
2023/06/25 04:29:48;;;;;;;11.20;9.10;;;;;;;22.39;66.97;96926.75;5067282;28;20213;-77
2023/06/25 04:32:36;;;;;;;13.43;8.70;;;;;;;22.82;66.30;96926.97;5084081;28;20191;-78
2023/06/25 04:35:05;;;;;;;8.90;7.90;;;;;;;23.13;65.15;96935.41;5054166;28;20258;-79
2023/06/25 04:37:36;;;;;;;13.93;7.93;;;;;;;23.95;63.10;96935.97;5071571;28;20696;-76
2023/06/25 04:40:08;;;;;;;8.73;7.47;;;;;;;23.84;62.45;96923.84;5086076;28;20229;-75
2023/06/25 04:42:38;;;;;;;10.37;7.67;;;;;;;24.33;61.99;96940.88;5085057;28;20202;-75
2023/06/25 04:45:06;;;;;;;8.63;7.67;;;;;;;24.92;59.35;96937.34;5089583;28;20208;-79
2023/06/25 04:47:33;;;;;;;13.07;7.23;;;;;;;25.22;59.39;96923.53;5089967;28;20192;-78
2023/06/25 04:50:02;;;;;;;10.70;8.70;;;;;;;25.85;57.54;96926.38;5088288;28;20202;-76
2023/06/25 04:52:32;;;;;;;9.57;7.47;;;;;;;26.22;58.56;96924.03;5089824;28;20632;-79
2023/06/25 04:54:59;;;;;;;10.50;7.23;;;;;;;26.67;57.47;96936.66;5088914;28;20185;-76
2023/06/25 04:57:27;;;;;;;9.37;5.37;;;;;;;26.72;56.64;96931.72;5089265;28;20229;-75
2023/06/25 04:59:55;;;;;;;10.83;6.97;;;;;;;27.22;56.07;96929.44;5088539;28;20540;-75
2023/06/25 05:02:22;;;;;;;11.83;6.60;;;;;;;27.02;55.76;96922.91;5087468;28;20640;-75
2023/06/25 05:04:51;;;;;;;8.10;5.63;;;;;;;27.03;55.61;96918.44;5089489;28;20197;-75
2023/06/25 05:07:18;;;;;;;8.80;5.47;;;;;;;27.20;55.32;96920.00;5053144;28;20672;-74
2023/06/25 05:09:45;;;;;;;8.53;6.00;;;;;;;26.62;57.06;96920.44;5089951;28;20192;-76
2023/06/25 05:12:14;;;;;;;11.07;7.10;;;;;;;26.66;57.37;96905.78;5086637;28;20238;-74
2023/06/25 05:14:42;;;;;;;9.13;5.80;;;;;;;26.00;59.41;96907.94;5087451;28;20207;-73
2023/06/25 05:17:09;;;;;;;10.00;7.23;;;;;;;26.45;58.89;96922.31;5086200;28;20216;-73
2023/06/25 05:19:36;;;;;;;9.00;5.70;;;;;;;26.90;57.28;96929.63;5090104;28;20228;-77
2023/06/25 05:22:05;;;;;;;17.20;5.73;;;;;;;26.92;56.85;96924.13;5054758;28;20690;-75
2023/06/25 05:24:33;;;;;;;9.37;5.60;;;;;;;27.42;56.37;96923.69;5086429;28;20188;-76
2023/06/25 05:27:00;;;;;;;6.33;5.23;;;;;;;27.76;55.37;96913.47;5089123;28;20269;-79
2023/06/25 05:29:28;;;;;;;8.33;5.40;;;;;;;27.27;57.25;96910.28;5070402;28;20694;-79
2023/06/25 05:32:05;;;;;;;7.93;5.73;;;;;;;27.31;57.08;96900.94;5073561;28;20188;-80
2023/06/25 05:34:44;;;;;;;10.33;5.13;;;;;;;27.19;58.11;96905.88;5088939;28;20398;-78
2023/06/25 05:37:12;;;;;;;10.03;5.17;;;;;;;27.41;57.05;96893.59;5086953;28;20209;-80
2023/06/25 05:39:43;;;;;;;9.20;5.87;;;;;;;26.87;57.91;96898.09;5088153;28;20709;-75
2023/06/25 05:42:18;;;;;;;9.70;6.10;;;;;;;26.93;57.65;96902.72;5086558;28;20313;-82
2023/06/25 05:44:46;;;;;;;6.80;5.23;;;;;;;26.66;56.86;96887.19;5089395;28;20184;-77
2023/06/25 05:47:13;;;;;;;9.30;6.03;;;;;;;27.01;56.75;96902.66;5087249;28;20694;-81
2023/06/25 05:49:52;;;;;;;9.60;5.50;;;;;;;27.55;55.38;96903.50;5088225;28;20189;-81
2023/06/25 05:52:20;;;;;;;6.77;4.80;;;;;;;27.61;53.81;96859.34;5071781;28;20199;-78
2023/06/25 05:54:48;;;;;;;8.77;5.47;;;;;;;27.96;53.60;96893.34;5093524;28;20204;-74
2023/06/25 05:57:56;;;;;;;9.17;5.77;;;;;;;27.72;53.78;96886.34;5092071;28;20224;-78
2023/06/25 06:01:20;;;;;;;6.83;5.63;;;;;;;27.91;53.73;96893.00;5106943;28;20329;-75
2023/06/25 06:04:41;;;;;;;7.10;5.33;;;;;;;27.72;55.16;96882.88;5108055;28;20195;-77
2023/06/25 06:08:01;;;;;;;6.80;5.77;;;;;;;28.32;53.90;96901.44;5106001;28;20220;-75
2023/06/25 06:11:26;;;;;;;9.70;6.03;;;;;;;28.09;53.94;96896.19;5089103;28;20192;-73
2023/06/25 06:14:47;;;;;;;12.50;5.93;;;;;;;28.43;52.84;96904.47;5107022;28;20219;-73
2023/06/25 06:17:31;;;;;;;7.33;5.70;;;;;;;28.40;53.09;96910.16;5101101;28;20231;-74
2023/06/25 06:20:38;;;;;;;7.47;5.67;;;;;;;28.31;52.49;96905.13;5109007;28;20200;-79
2023/06/25 06:23:59;;;;;;;7.00;5.20;;;;;;;28.19;51.68;96899.44;5089546;28;20177;-77
2023/06/25 06:27:20;;;;;;;8.63;6.23;;;;;;;28.14;52.64;96889.31;5088958;28;20298;-77
2023/06/25 06:30:42;;;;;;;7.73;5.33;;;;;;;28.46;51.86;96888.09;5091700;28;20199;-78
2023/06/25 06:34:04;;;;;;;9.07;5.80;;;;;;;28.45;51.19;96893.63;5087397;28;20242;-75
2023/06/25 06:37:25;;;;;;;7.03;5.37;;;;;;;27.94;52.35;96890.81;5086498;28;20205;-78
2023/06/25 06:40:46;;;;;;;7.53;4.80;;;;;;;27.16;53.81;96886.78;5088430;28;20200;-77
2023/06/25 06:44:07;;;;;;;6.77;5.47;;;;;;;27.33;53.82;96883.81;5088039;28;20568;-80
2023/06/25 06:47:28;;;;;;;9.73;5.43;;;;;;;27.96;52.38;96880.84;5086897;28;20254;-74
2023/06/25 06:50:48;;;;;;;6.30;5.10;;;;;;;27.62;51.96;96856.50;5072465;28;20337;-76
2023/06/25 06:54:09;;;;;;;7.87;5.10;;;;;;;27.31;53.37;96871.69;5084993;28;20699;-75
2023/06/25 06:57:31;;;;;;;11.80;5.33;;;;;;;27.47;52.11;96873.44;5083624;28;20196;-79
2023/06/25 07:00:52;;;;;;;10.53;5.83;;;;;;;27.85;52.05;96867.94;5084442;28;20871;-80
2023/06/25 07:04:15;;;;;;;9.63;5.40;;;;;;;27.37;54.11;96863.88;5066847;28;20196;-78
2023/06/25 07:07:36;;;;;;;10.10;6.23;;;;;;;27.97;52.53;96868.34;5086907;28;20236;-74
2023/06/25 07:10:38;;;;;;;11.90;6.33;;;;;;;28.64;51.14;96864.63;5084525;28;20661;-75
2023/06/25 07:13:59;;;;;;;9.03;6.70;;;;;;;29.20;50.01;96864.84;5082940;28;20197;-75
2023/06/25 07:17:24;;;;;;;6.53;5.33;;;;;;;28.84;47.57;96865.66;5067105;28;20220;-76
2023/06/25 07:20:45;;;;;;;8.43;5.30;;;;;;;28.64;48.23;96867.28;5086661;28;20180;-77
2023/06/25 07:24:06;;;;;;;7.47;5.43;;;;;;;28.15;51.17;96866.19;5086834;28;20223;-75
2023/06/25 07:27:27;;;;;;;7.93;5.50;;;;;;;28.76;48.79;96863.13;5083386;28;20184;-76
2023/06/25 07:30:48;;;;;;;6.50;5.60;;;;;;;28.85;47.76;96853.97;5083248;28;20195;-78
2023/06/25 07:34:08;;;;;;;6.20;5.00;;;;;;;29.08;45.77;96850.34;5086843;28;20190;-78
2023/06/25 07:37:29;;;;;;;7.80;5.20;;;;;;;29.43;46.60;96857.50;5087081;28;20227;-77
2023/06/25 07:40:50;;;;;;;7.70;5.50;;;;;;;29.48;45.59;96850.56;5086591;28;20666;-76
2023/06/25 07:44:10;;;;;;;8.03;5.83;;;;;;;29.66;44.74;96844.72;5084524;28;20184;-75
2023/06/25 07:47:32;;;;;;;10.37;5.70;;;;;;;30.04;44.25;96848.75;5083098;28;20206;-76
2023/06/25 07:50:52;;;;;;;8.13;5.87;;;;;;;30.19;44.26;96844.09;5087147;28;20707;-76
2023/06/25 07:54:13;;;;;;;7.73;5.33;;;;;;;30.06;44.06;96857.41;5087396;28;20273;-76
2023/06/25 07:57:35;;;;;;;11.23;5.53;;;;;;;29.54;44.58;96840.94;5084935;28;20192;-77
2023/06/25 08:00:55;;;;;;;11.50;6.13;;;;;;;29.36;46.22;96838.75;5081851;28;20278;-73
2023/06/25 08:04:16;;;;;;;8.43;5.20;;;;;;;28.81;46.51;96835.91;5085459;28;20196;-77
2023/06/25 08:07:38;;;;;;;8.37;5.73;;;;;;;28.44;47.08;96828.84;5083945;28;20224;-78
2023/06/25 08:10:59;;;;;;;7.20;5.93;;;;;;;29.03;46.16;96828.72;5083149;28;20674;-74
2023/06/25 08:14:20;;;;;;;8.50;5.53;;;;;;;29.40;45.92;96823.16;5084219;28;20208;-79
2023/06/25 08:17:42;;;;;;;8.00;5.60;;;;;;;29.76;45.00;96815.06;5083689;28;20188;-78
2023/06/25 08:20:57;;;;;;;7.93;5.70;;;;;;;29.83;45.42;96823.94;5088217;28;20818;-81
2023/06/25 08:24:18;;;;;;;6.67;5.17;;;;;;;29.33;46.74;96819.59;5073093;28;20273;-78
2023/06/25 08:27:39;;;;;;;8.40;5.37;;;;;;;29.69;45.60;96812.31;5086252;28;20201;-81
2023/06/25 08:31:00;;;;;;;9.43;5.70;;;;;;;29.72;45.29;96809.25;5103687;28;20734;-77
2023/06/25 08:33:41;;;;;;;10.40;5.83;;;;;;;29.49;45.83;96811.34;5087901;28;20249;-82
2023/06/25 08:36:08;;;;;;;9.83;5.83;;;;;;;29.65;46.63;96805.72;5110401;28;20280;-77
2023/06/25 08:38:37;;;;;;;11.73;5.90;;;;;;;29.60;45.68;96795.63;5071180;28;20329;-80
2023/06/25 08:41:05;;;;;;;8.23;5.40;;;;;;;29.47;45.49;96789.38;5089817;28;20220;-80
2023/06/25 08:43:33;;;;;;;8.63;5.93;;;;;;;29.54;46.06;96800.91;5087613;28;20212;-79
2023/06/25 08:46:40;;;;;;;8.63;6.10;;;;;;;29.55;45.93;96787.34;5108798;28;20271;-75
2023/06/25 08:49:25;;;;;;;7.97;5.90;;;;;;;29.50;46.13;96783.63;5108648;28;20615;-75
2023/06/25 08:51:55;;;;;;;8.53;6.50;;;;;;;29.70;45.79;96792.59;5107898;28;20215;-78
2023/06/25 08:54:22;;;;;;;7.73;5.50;;;;;;;29.75;46.19;96792.88;5110884;28;20210;-73
2023/06/25 08:56:49;;;;;;;9.83;5.90;;;;;;;29.77;45.76;96788.16;5090510;28;20626;-75
2023/06/25 08:59:59;;;;;;;7.93;6.60;;;;;;;29.56;45.84;96802.38;5092412;28;20725;-79
2023/06/25 09:03:20;;;;;;;8.53;5.63;;;;;;;29.79;45.04;96779.97;5107062;28;20591;-73
2023/06/25 09:06:42;;;;;;;7.10;5.50;;;;;;;29.91;46.10;96791.75;5089948;28;20195;-81
2023/06/25 09:10:03;;;;;;;8.13;5.70;;;;;;;29.60;47.07;96781.44;5105570;28;20249;-79
2023/06/25 09:13:25;;;;;;;8.87;5.70;;;;;;;29.87;46.34;96790.47;5090933;28;20212;-80
2023/06/25 09:16:09;;;;;;;8.23;6.00;;;;;;;29.38;46.35;96782.50;5110229;28;20207;-79
2023/06/25 09:18:39;;;;;;;8.00;5.47;;;;;;;29.23;47.33;96785.25;5107492;28;20224;-82
2023/06/25 09:21:46;;;;;;;8.43;6.33;;;;;;;29.47;47.28;96776.03;5109947;28;20678;-83
2023/06/25 09:25:07;;;;;;;9.43;5.57;;;;;;;29.56;46.81;96785.50;5109677;28;20678;-80
2023/06/25 09:28:28;;;;;;;8.13;5.43;;;;;;;29.50;46.48;96765.78;5109448;28;20684;-82
2023/06/25 09:31:48;;;;;;;8.37;5.50;;;;;;;29.60;45.38;96760.91;5103683;28;20194;-80
2023/06/25 09:35:10;;;;;;;7.03;5.07;;;;;;;29.81;45.91;96778.75;5088957;28;20196;-81
2023/06/25 09:38:31;;;;;;;10.37;6.03;;;;;;;30.08;44.96;96769.88;5088124;28;20219;-78
2023/06/25 09:41:54;;;;;;;8.73;5.77;;;;;;;29.51;45.88;96770.06;5088121;28;20199;-80
2023/06/25 09:45:15;;;;;;;7.30;5.83;;;;;;;29.64;45.49;96772.84;5086028;28;20273;-78
2023/06/25 09:48:36;;;;;;;9.90;7.03;;;;;;;29.64;46.15;96766.69;5086829;28;20193;-76
2023/06/25 09:51:36;;;;;;;9.97;6.77;;;;;;;29.42;46.87;96770.44;5056707;28;20713;-74
2023/06/25 09:55:00;;;;;;;7.80;5.20;;;;;;;29.75;45.75;96774.19;5090579;28;20194;-77
2023/06/25 09:58:21;;;;;;;8.70;5.93;;;;;;;29.88;45.24;96760.94;5088353;28;20283;-80
2023/06/25 10:01:41;;;;;;;9.50;6.03;;;;;;;30.10;44.25;96759.81;5087294;28;20195;-80
2023/06/25 10:05:02;;;;;;;12.13;5.90;;;;;;;30.18;44.35;96758.81;5088323;28;20207;-79
2023/06/25 10:08:23;;;;;;;10.17;6.20;;;;;;;30.13;44.40;96751.38;5088557;28;20229;-79
2023/06/25 10:11:43;;;;;;;8.23;5.40;;;;;;;30.19;44.53;96758.59;5088499;28;20192;-79
2023/06/25 10:15:04;;;;;;;13.87;5.60;;;;;;;30.55;43.42;96750.34;5087122;28;20277;-78
2023/06/25 10:18:25;;;;;;;8.53;5.40;;;;;;;30.59;42.56;96740.06;5087851;28;20330;-77
2023/06/25 10:21:46;;;;;;;7.40;5.53;;;;;;;30.45;42.99;96741.88;5088871;28;20185;-78
2023/06/25 10:25:06;;;;;;;12.00;6.07;;;;;;;30.38;44.38;96739.19;5072413;28;20192;-77
2023/06/25 10:28:27;;;;;;;9.23;5.93;;;;;;;30.40;44.64;96725.63;5067260;28;20621;-80
2023/06/25 10:31:57;;;;;;;9.67;5.87;;;;;;;30.34;44.47;96721.06;5086074;28;20188;-77
2023/06/25 10:35:20;;;;;;;9.47;5.50;;;;;;;29.79;44.92;96699.84;5086829;28;20694;-72
2023/06/25 10:38:42;;;;;;;8.40;5.77;;;;;;;30.30;44.50;96709.97;5087076;28;20709;-77
2023/06/25 10:42:06;;;;;;;9.63;5.60;;;;;;;30.50;43.75;96702.81;5086740;28;20196;-82
2023/06/25 10:45:28;;;;;;;10.77;6.63;;;;;;;30.66;43.25;96695.47;5069705;28;20223;-74
2023/06/25 10:48:53;;;;;;;13.80;5.80;;;;;;;30.88;42.93;96681.72;5085131;28;20188;-76
2023/06/25 10:52:24;;;;;;;8.90;6.63;;;;;;;31.31;42.39;96692.81;5092871;28;20271;-79
2023/06/25 10:55:44;;;;;;;6.50;5.50;;;;;;;31.21;42.06;96689.75;5088115;28;20227;-80
2023/06/25 10:59:05;;;;;;;10.20;6.13;;;;;;;31.34;42.40;96687.06;5092173;28;20220;-76
2023/06/25 11:02:11;;;;;;;10.67;6.50;;;;;;;30.95;43.02;96671.88;5096090;28;20784;-73
2023/06/25 11:05:33;;;;;;;6.97;5.70;;;;;;;30.06;45.63;96681.09;5090059;28;20232;-78
2023/06/25 11:08:53;;;;;;;8.50;5.70;;;;;;;29.43;47.54;96676.03;5087714;28;20322;-79
2023/06/25 11:12:14;;;;;;;9.03;6.30;;;;;;;29.87;45.54;96683.66;5086511;28;20192;-79
2023/06/25 11:15:21;;;;;;;7.90;5.30;;;;;;;30.01;45.64;96672.84;5104339;28;20320;-84
2023/06/25 11:18:43;;;;;;;8.27;5.90;;;;;;;29.83;46.20;96659.22;5106236;28;20220;-79
2023/06/25 11:22:03;;;;;;;8.70;5.90;;;;;;;30.20;45.41;96666.75;5107523;28;20596;-75
2023/06/25 11:25:24;;;;;;;9.30;6.23;;;;;;;30.30;45.45;96666.38;5107990;28;20192;-78
2023/06/25 11:28:48;;;;;;;9.40;5.90;;;;;;;30.66;44.49;96674.06;5106369;28;20191;-77
2023/06/25 11:32:11;;;;;;;9.03;5.93;;;;;;;30.16;44.63;96660.16;5105981;28;20188;-76
2023/06/25 11:35:32;;;;;;;11.23;6.23;;;;;;;29.49;46.16;96660.03;5107117;28;20196;-80
2023/06/25 11:38:53;;;;;;;10.90;6.17;;;;;;;29.49;46.30;96636.00;5085193;28;20270;-80
2023/06/25 11:42:14;;;;;;;8.53;6.47;;;;;;;30.20;44.63;96652.56;5084658;28;20212;-81
2023/06/25 11:45:46;;;;;;;8.40;5.93;;;;;;;30.84;43.49;96652.88;5084225;28;20260;-78
2023/06/25 11:49:08;;;;;;;7.93;5.93;;;;;;;31.09;43.07;96653.94;5082779;28;20189;-81
2023/06/25 11:52:29;;;;;;;8.40;5.77;;;;;;;31.25;43.43;96648.16;5083419;28;20192;-76
2023/06/25 11:55:50;;;;;;;9.07;5.87;;;;;;;30.66;44.71;96639.31;5082541;28;20261;-78
2023/06/25 11:59:10;;;;;;;8.33;6.27;;;;;;;30.40;45.68;96646.25;5084580;28;20224;-80
2023/06/25 12:02:31;;;;;;;8.50;5.70;;;;;;;29.69;47.94;96636.94;5084255;28;20199;-75
2023/06/25 12:05:53;;;;;;;7.43;5.80;;;;;;;29.36;48.26;96641.28;5083023;28;20683;-73
2023/06/25 12:09:14;;;;;;;6.40;5.63;;;;;;;29.06;48.32;96634.47;5085263;28;20304;-78
2023/06/25 12:11:55;;;;;;;6.67;5.97;;;;;;;28.95;48.68;96635.81;5093955;28;20686;-81
2023/06/25 12:15:03;;;;;;;10.53;6.10;;;;;;;29.20;48.38;96630.09;5105401;28;20249;-78
2023/06/25 12:18:23;;;;;;;6.43;5.53;;;;;;;29.34;48.66;96634.50;5106070;28;20285;-80
2023/06/25 12:21:44;;;;;;;8.53;6.20;;;;;;;29.38;48.77;96630.41;5085588;28;20612;-78
2023/06/25 12:25:05;;;;;;;7.00;5.80;;;;;;;29.64;47.88;96622.53;5065583;28;20196;-79
2023/06/25 12:28:25;;;;;;;7.70;5.43;;;;;;;30.23;46.11;96618.22;5066672;28;20191;-79
2023/06/25 12:31:46;;;;;;;9.30;6.03;;;;;;;30.28;46.34;96615.78;5084127;28;20192;-75
2023/06/25 12:35:10;;;;;;;8.10;6.03;;;;;;;30.17;44.69;96597.66;5071249;28;20212;-78
2023/06/25 12:38:31;;;;;;;10.03;5.83;;;;;;;30.17;46.77;96603.00;5084441;28;20698;-75
2023/06/25 12:41:51;;;;;;;8.23;6.23;;;;;;;30.75;44.28;96589.97;5083406;28;20227;-79
2023/06/25 12:45:14;;;;;;;8.13;5.53;;;;;;;30.73;44.78;96598.16;5084989;28;20193;-78
2023/06/25 12:48:35;;;;;;;8.27;5.40;;;;;;;30.25;45.51;96592.13;5085482;28;20231;-78
2023/06/25 12:51:56;;;;;;;9.90;6.13;;;;;;;30.65;44.36;96603.72;5086593;28;20216;-78
2023/06/25 12:55:17;;;;;;;7.30;5.67;;;;;;;30.07;44.60;96607.91;5088860;28;20195;-77
2023/06/25 12:58:38;;;;;;;7.57;4.97;;;;;;;29.91;46.65;96607.47;5083759;28;20223;-80
2023/06/25 13:01:58;;;;;;;8.87;5.37;;;;;;;29.59;46.58;96598.28;5095150;28;20203;-77
2023/06/25 13:05:19;;;;;;;6.40;4.97;;;;;;;29.35;47.62;96599.59;5107754;28;20230;-78
2023/06/25 13:08:40;;;;;;;8.10;5.73;;;;;;;28.84;50.62;96603.53;5091540;28;20227;-77
2023/06/25 13:12:01;;;;;;;17.30;6.40;;;;;;;27.57;59.15;96582.16;5107702;28;20195;-82
2023/06/25 13:15:21;;;;;;;9.87;5.87;;;;;;;25.62;64.77;96586.69;5107258;28;20225;-80
2023/06/25 13:18:43;;;;;;;12.17;5.67;;;;;;;24.94;67.94;96585.59;5110520;28;20223;-75
2023/06/25 13:22:04;;;;;;;8.03;4.67;;;;;;;24.71;65.85;96600.53;5107734;28;20201;-73
2023/06/25 13:25:25;;;;;;;7.40;5.60;;;;;;;24.58;65.90;96624.03;5108671;28;20281;-79
2023/06/25 13:28:46;;;;;;;6.93;5.33;;;;;;;24.08;68.89;96632.94;5107088;28;20691;-76
2023/06/25 13:31:28;;;;;;;6.83;5.77;;;;;;;24.33;67.38;96632.97;5108619;28;20812;-78
2023/06/25 13:33:57;;;;;;;9.17;5.97;;;;;;;23.33;74.36;96619.78;5108746;28;20195;-79